Change the Weather History Date:

Wednesday, June 26, 2013

  Actual Average (KOMA) Record (KOMA)
Temperature  
Mean Temperature 81 °F 75 °F  
Max Temperature 89 °F 86 °F 105 °F (1936)
Min Temperature 73 °F 64 °F 50 °F (1974)
Degree Days  
Heating Degree Days 0 0  
Month to date heating degree days 15  
Since 1 June heating degree days 15  
Since 1 July heating degree days 6165  
Cooling Degree Days 16 10  
Month to date cooling degree days 187  
Year to date cooling degree days 269  
Since 1 June cooling degree days 187  
Growing Degree Days 31 (Base 50)    
Moisture  
Dew Point 65 °F    
Average Humidity 61    
Maximum Humidity 92    
Minimum Humidity 35    
Precipitation  
Precipitation 0.00 in 0.14 in 2.90 in (1935)
Month to date precipitation 3.69  
Year to date precipitation 14.97  
Snow  
Snow 0.00 in 0.00 in - ()
Month to date snowfall 0.0  
Since 1 July snowfall 26.4  
Snow Depth -    
Sea Level Pressure  
Sea Level Pressure 29.82 in    
Wind  
Wind Speed 7 mph (WNW)    
Max Wind Speed 17 mph    
Max Gust Speed 22 mph    
Visibility 10 miles    
Events      
T = Trace of Precipitation, MM = Missing Value Source: NWS Daily Summary

Daily Weather History Graph

Daily Weather History Graph

Search for Another Location

Airport or City:

Trip Planner

Search our weather history database for the weather conditions in past years. The results will help you decide how hot, cold, wet, or windy it might be!

Date:

Astronomy

Jun. 26, 2013 Rise Set
Actual Time 5:52 AM CDT 9:02 PM CDT
Civil Twilight 5:18 AM CDT 9:36 PM CDT
Nautical Twilight 4:35 AM CDT 10:19 PM CDT
Astronomical Twilight 3:43 AM CDT 11:11 PM CDT
Moon 11:22 PM CDT (6/26) 9:48 AM CDT (6/26)
Length of Visible Light 16h 17m
Length of Day
15h 09m
Waning Gibbous, 85% of the Moon is Illuminated
Jun 26
Waning Gibbous
Jun 29
Last Quarter
Jul 8
New
Jul 15
First Quarter
Jul 22
Full

Hourly Weather History & Observations

Time (CDT) Temp. Heat Index Dew Point Humidity Pressure Visibility Wind Dir Wind Speed Gust Speed Precip Events Conditions
12:15 AM 78.8 °F - 71.2 °F 78% 29.69 in 10.0 mi SSE 6.9 mph - N/A   Scattered Clouds
12:35 AM 78.4 °F - 71.1 °F 78% 29.69 in 10.0 mi SSE 8.1 mph - N/A   Clear
12:55 AM 77.9 °F - 71.1 °F 79% 29.68 in 10.0 mi SSE 8.1 mph - N/A   Clear
1:15 AM 77.4 °F - 71.1 °F 81% 29.68 in 10.0 mi SSE 6.9 mph - N/A   Clear
1:35 AM 76.5 °F - 70.9 °F 83% 29.68 in 10.0 mi South 3.5 mph - N/A   Clear
1:55 AM 75.2 °F - 70.7 °F 86% 29.68 in 10.0 mi SSW 4.6 mph - N/A   Clear
2:15 AM 74.8 °F - 70.9 °F 87% 29.68 in 10.0 mi South 5.8 mph - N/A   Clear
2:35 AM 74.3 °F - 70.7 °F 88% 29.68 in 10.0 mi SW 4.6 mph - N/A   Clear
2:55 AM 73.9 °F - 70.7 °F 90% 29.68 in 10.0 mi WSW 8.1 mph - N/A   Clear
3:15 AM 73.4 °F - 70.3 °F 90% 29.69 in 10.0 mi WSW 5.8 mph - N/A   Clear
3:35 AM 73.4 °F - 70.7 °F 91% 29.69 in 10.0 mi WSW 6.9 mph - N/A   Clear
3:55 AM 73.4 °F - 70.7 °F 91% 29.70 in 10.0 mi WSW 5.8 mph - N/A   Clear
4:15 AM 73.4 °F - 70.9 °F 92% 29.71 in 7.0 mi West 5.8 mph - N/A   Clear
4:35 AM 73.4 °F - 71.1 °F 92% 29.71 in 7.0 mi West 5.8 mph - N/A   Clear
4:55 AM 74.3 °F - 72.0 °F 92% 29.72 in 7.0 mi West 5.8 mph - N/A   Clear
5:15 AM 74.3 °F - 72.0 °F 92% 29.72 in 7.0 mi West 5.8 mph - N/A   Clear
5:35 AM 74.5 °F - 72.0 °F 92% 29.74 in 7.0 mi West 8.1 mph - N/A   Clear
5:55 AM 74.3 °F - 71.1 °F 90% 29.75 in 7.0 mi WNW 6.9 mph - N/A   Clear
6:15 AM 74.3 °F - 70.0 °F 86% 29.76 in 10.0 mi WNW 8.1 mph - N/A   Clear
6:35 AM 74.3 °F - 68.9 °F 83% 29.76 in 10.0 mi WNW 10.4 mph - N/A   Clear
6:55 AM 74.3 °F - 67.5 °F 79% 29.77 in 10.0 mi NW 10.4 mph 18.4 mph N/A   Clear
7:15 AM 74.1 °F - 67.1 °F 79% 29.77 in 10.0 mi NW 10.4 mph - N/A   Clear
7:35 AM 74.5 °F - 66.9 °F 77% 29.78 in 10.0 mi WNW 10.4 mph 16.1 mph N/A   Clear
7:55 AM 75.2 °F - 67.1 °F 76% 29.80 in 10.0 mi NW 11.5 mph 17.3 mph N/A   Clear
8:15 AM 75.6 °F - 67.5 °F 76% 29.81 in 10.0 mi NW 12.7 mph 17.3 mph N/A   Clear
8:35 AM 76.5 °F - 67.1 °F 73% 29.81 in 10.0 mi NW 12.7 mph 18.4 mph N/A   Clear
8:55 AM 77.0 °F - 67.3 °F 72% 29.82 in 10.0 mi NW 12.7 mph 18.4 mph N/A   Clear
9:15 AM 77.9 °F - 67.5 °F 70% 29.83 in 10.0 mi NW 12.7 mph - N/A   Clear
9:55 AM 79.2 °F - 66.4 °F 65% 29.83 in 10.0 mi NW 17.3 mph 21.9 mph N/A   Clear
10:15 AM 79.9 °F - 66.0 °F 62% 29.83 in 10.0 mi NNW 10.4 mph - N/A   Clear
10:35 AM 80.8 °F 82.6 °F 65.5 °F 59% 29.84 in 10.0 mi NNW 13.8 mph - N/A   Clear
10:55 AM 81.7 °F 83.6 °F 65.5 °F 58% 29.84 in 10.0 mi NNW 10.4 mph - N/A   Clear
11:15 AM 82.4 °F 83.9 °F 64.2 °F 54% 29.85 in 10.0 mi NNW 13.8 mph - N/A   Clear
11:35 AM 82.8 °F 84.2 °F 64.2 °F 53% 29.86 in 10.0 mi NW 15.0 mph 18.4 mph N/A   Clear
11:55 AM 83.7 °F 85.3 °F 64.9 °F 53% 29.87 in 10.0 mi NW 9.2 mph 16.1 mph N/A   Clear
12:15 PM 84.2 °F 85.6 °F 64.4 °F 51% 29.87 in 7.0 mi NW 11.5 mph - N/A   Clear
12:35 PM 84.2 °F 85.4 °F 63.7 °F 50% 29.87 in 10.0 mi WNW 9.2 mph 17.3 mph N/A   Clear
12:55 PM 85.3 °F 85.9 °F 62.2 °F 46% 29.88 in 10.0 mi WNW 12.7 mph 18.4 mph N/A   Clear
1:15 PM 85.6 °F 85.9 °F 61.3 °F 44% 29.88 in 10.0 mi West 12.7 mph - N/A   Clear
1:35 PM 86.5 °F 86.3 °F 60.1 °F 41% 29.88 in 10.0 mi WNW 9.2 mph - N/A   Clear
1:55 PM 86.9 °F 86.7 °F 60.8 °F 41% 29.88 in 10.0 mi West 10.4 mph 17.3 mph N/A   Clear
2:15 PM 87.4 °F 87.7 °F 61.5 °F 42% 29.87 in 10.0 mi WNW 11.5 mph 17.3 mph N/A   Clear
2:35 PM 87.1 °F 86.1 °F 58.1 °F 37% 29.88 in 10.0 mi NW 12.7 mph 18.4 mph N/A   Clear
2:55 PM 87.3 °F 87.0 °F 59.9 °F 40% 29.87 in 10.0 mi WNW 9.2 mph - N/A   Clear
3:15 PM 87.4 °F 86.9 °F 59.7 °F 39% 29.87 in 10.0 mi WNW 8.1 mph - N/A   Clear
3:35 PM 87.8 °F 87.1 °F 59.4 °F 38% 29.87 in 10.0 mi NW 8.1 mph - N/A   Clear
3:55 PM 88.5 °F 87.3 °F 57.9 °F 35% 29.86 in 10.0 mi WNW 9.2 mph - N/A   Clear
4:15 PM 88.7 °F 87.5 °F 57.6 °F 35% 29.86 in 10.0 mi WNW 9.2 mph - N/A   Clear
4:35 PM 88.3 °F 87.3 °F 58.5 °F 36% 29.87 in 10.0 mi WNW 6.9 mph - N/A   Clear
4:55 PM 88.9 °F 87.7 °F 57.7 °F 35% 29.86 in 10.0 mi WNW 8.1 mph - N/A   Clear
5:15 PM 88.9 °F 88.3 °F 59.4 °F 37% 29.86 in 10.0 mi WNW 6.9 mph - N/A   Clear
5:35 PM 89.2 °F 88.2 °F 58.5 °F 35% 29.86 in 10.0 mi NW 5.8 mph - N/A   Clear
5:55 PM 87.8 °F 86.7 °F 57.7 °F 36% 29.86 in 10.0 mi NW 5.8 mph - N/A   Clear
6:15 PM 88.7 °F 87.5 °F 57.4 °F 35% 29.87 in 10.0 mi NNW 5.8 mph - N/A   Clear
6:35 PM 88.5 °F 87.3 °F 57.6 °F 35% 29.87 in 10.0 mi NW 6.9 mph - N/A   Clear
6:55 PM 88.0 °F 86.7 °F 57.4 °F 35% 29.87 in 10.0 mi WNW 4.6 mph - N/A   Clear
7:15 PM 86.9 °F 86.1 °F 58.6 °F 38% 29.87 in 10.0 mi Calm Calm - N/A   Clear
7:35 PM 86.7 °F 87.3 °F 62.2 °F 44% 29.87 in 10.0 mi NW 3.5 mph - N/A   Clear
7:55 PM 85.8 °F 86.3 °F 62.4 °F 45% 29.87 in 10.0 mi Calm Calm - N/A   Clear
8:15 PM 84.9 °F 85.6 °F 62.4 °F 47% 29.87 in 10.0 mi Calm Calm - N/A   Clear
8:35 PM 83.3 °F 84.6 °F 63.9 °F 52% 29.88 in 10.0 mi WNW 3.5 mph - N/A   Clear
8:55 PM 81.5 °F 82.9 °F 63.9 °F 55% 29.88 in 10.0 mi Calm Calm - N/A   Clear
9:15 PM 81.9 °F 82.8 °F 61.9 °F 51% 29.88 in 10.0 mi Calm Calm - N/A   Clear
9:35 PM 80.1 °F 81.4 °F 62.8 °F 55% 29.88 in 10.0 mi Calm Calm - N/A   Clear
9:55 PM 78.3 °F - 63.7 °F 61% 29.89 in 10.0 mi Calm Calm - N/A   Clear
10:15 PM 81.9 °F 82.3 °F 60.4 °F 48% 29.90 in 10.0 mi Calm Calm - N/A   Clear
10:35 PM 80.8 °F 81.4 °F 60.1 °F 49% 29.90 in 10.0 mi Calm Calm - N/A   Clear
10:55 PM 76.1 °F - 63.1 °F 64% 29.90 in 10.0 mi Calm Calm - N/A   Clear
11:15 PM 79.5 °F - 56.3 °F 45% 29.90 in 10.0 mi Calm Calm - N/A   Clear
11:35 PM 78.4 °F - 57.6 °F 49% 29.91 in 10.0 mi Calm Calm - N/A   Clear
11:55 PM 73.2 °F - 61.9 °F 68% 29.91 in 10.0 mi Calm Calm - N/A   Clear